Time;durP1;ratioP1;P1;durP2;ratioP2;P2;SDS_P1;SDS_P2;PMS_P1;PMS_P2;Temp;Humidity;BMP_temperature;BMP_pressure;BME280_temperature;BME280_humidity;BME280_pressure;Samples;Min_cycle;Max_cycle;Signal;HPM_P1;HPM_P2
2023/01/18 00:00:47;;;;;;;9.47;8.47;;;;;;;0.91;100.00;93751.22;5071980;28;20209;-55
2023/01/18 00:03:14;;;;;;;10.10;9.10;;;;;;;0.99;100.00;93748.63;5072311;28;20209;-56
2023/01/18 00:05:41;;;;;;;9.53;8.63;;;;;;;1.09;100.00;93752.91;5070573;28;20911;-55
2023/01/18 00:08:10;;;;;;;11.30;9.53;;;;;;;1.07;100.00;93739.22;5071337;28;20621;-57
2023/01/18 00:10:36;;;;;;;10.70;9.60;;;;;;;1.20;100.00;93750.03;5071676;28;20550;-56
2023/01/18 00:13:03;;;;;;;10.97;9.87;;;;;;;1.26;100.00;93739.81;5072162;28;20230;-56
2023/01/18 00:15:33;;;;;;;10.73;9.63;;;;;;;1.32;100.00;93740.94;5071506;28;20214;-56
2023/01/18 00:18:00;;;;;;;10.43;8.93;;;;;;;1.31;100.00;93742.72;5077684;28;20220;-56
2023/01/18 00:20:30;;;;;;;10.47;9.37;;;;;;;1.33;100.00;93745.19;5078625;28;20214;-56
2023/01/18 00:22:56;;;;;;;10.37;9.27;;;;;;;1.33;100.00;93745.19;5079586;28;20197;-55
2023/01/18 00:25:24;;;;;;;10.63;9.53;;;;;;;1.34;100.00;93750.25;5080204;28;20201;-57
2023/01/18 00:27:52;;;;;;;10.23;9.23;;;;;;;1.32;100.00;93740.94;5080770;28;20216;-57
2023/01/18 00:30:22;;;;;;;10.30;9.23;;;;;;;1.35;100.00;93749.25;5079956;28;20200;-56
2023/01/18 00:32:49;;;;;;;10.13;9.13;;;;;;;1.47;100.00;93760.19;5079281;28;20220;-56
2023/01/18 00:35:20;;;;;;;11.23;10.13;;;;;;;1.48;100.00;93759.22;5077253;28;20206;-55
2023/01/18 00:37:48;;;;;;;11.47;10.37;;;;;;;1.55;100.00;93757.63;5073449;28;20740;-55
2023/01/18 00:40:14;;;;;;;11.33;10.13;;;;;;;1.57;100.00;93763.47;5070118;28;20624;-55
2023/01/18 00:45:26;;;;;;;12.40;10.60;;;;;;;1.58;100.00;93759.91;5070754;28;20204;-55
2023/01/18 00:47:53;;;;;;;12.53;10.50;;;;;;;1.60;100.00;93773.56;5070744;28;20201;-55
2023/01/18 00:50:21;;;;;;;11.67;10.57;;;;;;;1.63;100.00;93778.44;5070918;28;20693;-55
2023/01/18 00:52:47;;;;;;;10.87;9.77;;;;;;;1.67;100.00;93771.13;5070935;28;20283;-56
2023/01/18 00:55:15;;;;;;;11.00;9.90;;;;;;;1.76;100.00;93772.78;5070113;28;20225;-55
2023/01/18 00:57:43;;;;;;;10.37;9.20;;;;;;;1.76;100.00;93768.41;5070827;28;20206;-55
2023/01/18 01:00:13;;;;;;;10.17;9.17;;;;;;;1.83;100.00;93779.81;5071136;28;20521;-55
2023/01/18 01:02:40;;;;;;;8.93;8.03;;;;;;;1.93;100.00;93780.47;5071011;28;20233;-56
2023/01/18 01:07:54;;;;;;;7.87;7.17;;;;;;;2.04;100.00;93757.69;5072546;28;20282;-55
2023/01/18 01:10:21;;;;;;;7.80;7.10;;;;;;;2.04;100.00;93755.06;5072275;28;20229;-55
2023/01/18 01:26:32;;;;;;;5.63;5.13;;;;;;;2.04;100.00;93771.53;5094878;28;20201;-59
2023/01/18 01:29:00;;;;;;;5.83;5.33;;;;;;;2.04;100.00;93775.94;5074094;28;20202;-55
2023/01/18 01:31:26;;;;;;;5.40;5.00;;;;;;;2.02;100.00;93783.09;5069700;28;20210;-54
2023/01/18 01:33:53;;;;;;;7.83;5.10;;;;;;;2.03;100.00;93779.50;5070396;28;20685;-56
2023/01/18 01:36:24;;;;;;;5.67;5.17;;;;;;;2.04;100.00;93786.34;5070583;28;20225;-56
2023/01/18 01:38:52;;;;;;;5.30;4.90;;;;;;;1.97;100.00;93787.00;5070670;28;20236;-55
2023/01/18 01:41:24;;;;;;;5.60;5.10;;;;;;;1.96;100.00;93781.94;5069591;28;20292;-55
2023/01/18 01:43:52;;;;;;;5.30;4.90;;;;;;;1.98;100.00;93787.81;5070144;28;20191;-55
2023/01/18 01:46:30;;;;;;;5.40;4.90;;;;;;;1.93;100.00;93780.47;5070026;28;20217;-56
2023/01/18 01:49:02;;;;;;;4.93;4.43;;;;;;;1.93;100.00;93785.69;5070120;28;20206;-56
2023/01/18 01:51:28;;;;;;;4.93;4.53;;;;;;;1.90;100.00;93790.41;5069774;28;20202;-56
2023/01/18 01:53:58;;;;;;;5.40;5.00;;;;;;;1.88;100.00;93789.72;5069261;28;20229;-55
2023/01/18 01:56:24;;;;;;;5.50;5.00;;;;;;;1.82;100.00;93793.81;5070252;28;20224;-56
2023/01/18 01:58:55;;;;;;;4.73;4.27;;;;;;;1.90;100.00;93795.63;5069776;28;20216;-55
2023/01/18 02:01:22;;;;;;;5.07;4.67;;;;;;;1.82;100.00;93799.03;5069769;28;20317;-56
2023/01/18 02:03:50;;;;;;;5.87;5.33;;;;;;;1.77;100.00;93790.84;5072599;28;20194;-57
2023/01/18 02:06:29;;;;;;;4.77;4.37;;;;;;;1.79;100.00;93801.94;5072705;28;20202;-54
2023/01/18 02:08:56;;;;;;;4.90;4.40;;;;;;;1.80;100.00;93800.97;5073322;28;20194;-55
2023/01/18 02:11:23;;;;;;;4.80;4.40;;;;;;;1.79;100.00;93799.34;5073637;28;20535;-55
2023/01/18 02:13:49;;;;;;;4.20;3.80;;;;;;;1.76;100.00;93794.47;5073234;28;20693;-56
2023/01/18 02:16:22;;;;;;;4.20;3.90;;;;;;;1.82;100.00;93800.81;5074653;28;20214;-56
2023/01/18 02:18:55;;;;;;;5.03;3.67;;;;;;;1.83;100.00;93800.66;5074053;28;20193;-57
2023/01/18 02:21:25;;;;;;;3.70;3.40;;;;;;;1.83;100.00;93802.44;5074450;28;20523;-57
2023/01/18 02:24:16;;;;;;;5.00;3.30;;;;;;;1.84;100.00;93812.69;5074629;28;20300;-59
2023/01/18 02:27:05;;;;;;;3.30;3.00;;;;;;;1.90;100.00;93816.47;5073969;28;20206;-55
2023/01/18 02:29:44;;;;;;;3.57;3.23;;;;;;;1.91;100.00;93818.88;5074352;28;20202;-56
2023/01/18 02:32:20;;;;;;;3.33;3.13;;;;;;;1.94;100.00;93818.59;5073840;28;20213;-55
2023/01/18 02:34:49;;;;;;;3.17;2.97;;;;;;;1.97;100.00;93817.44;5073127;28;20555;-56
2023/01/18 02:37:23;;;;;;;2.90;2.70;;;;;;;1.98;100.00;93822.47;5073051;28;20642;-55
2023/01/18 02:39:56;;;;;;;3.17;2.97;;;;;;;1.95;100.00;93824.59;5073026;28;20201;-55
2023/01/18 02:47:59;;;;;;;3.10;2.90;;;;;;;2.06;100.00;93826.06;5072862;28;20221;-56
2023/01/18 02:50:27;;;;;;;2.67;2.47;;;;;;;2.07;100.00;93825.13;5073304;28;20202;-56
2023/01/18 02:52:54;;;;;;;3.20;2.97;;;;;;;2.04;100.00;93833.25;5073222;28;20230;-56
2023/01/18 02:55:34;;;;;;;2.60;2.40;;;;;;;2.06;100.00;93831.28;5072331;28;20225;-55
2023/01/18 02:58:05;;;;;;;3.83;2.97;;;;;;;2.06;100.00;93826.91;5072995;28;20272;-55
2023/01/18 03:00:34;;;;;;;2.83;2.63;;;;;;;2.02;100.00;93836.00;5072367;28;20207;-55
2023/01/18 03:03:01;;;;;;;2.80;2.60;;;;;;;2.03;100.00;93835.03;5073041;28;20195;-57
2023/01/18 03:05:29;;;;;;;3.50;2.73;;;;;;;1.98;100.00;93834.72;5073138;28;20292;-57
2023/01/18 03:08:04;;;;;;;4.20;3.00;;;;;;;2.00;100.00;93833.56;5072844;28;20217;-57
2023/01/18 03:10:31;;;;;;;3.13;2.83;;;;;;;2.04;100.00;93833.25;5072281;28;20202;-55
2023/01/18 03:13:00;;;;;;;2.83;2.63;;;;;;;2.02;100.00;93835.22;5071562;28;20236;-57
2023/01/18 03:15:31;;;;;;;3.03;2.70;;;;;;;1.99;100.00;93839.75;5072920;28;20214;-56
2023/01/18 03:18:05;;;;;;;2.60;2.40;;;;;;;2.03;100.00;93848.06;5072834;28;20193;-57
2023/01/18 03:20:35;;;;;;;2.37;2.17;;;;;;;2.03;100.00;93840.25;5072789;28;20206;-57
2023/01/18 03:25:49;;;;;;;2.37;2.17;;;;;;;2.14;100.00;93847.78;5072228;28;20205;-56
2023/01/18 03:33:55;;;;;;;2.03;1.57;;;;;;;2.11;100.00;93849.88;5075096;28;21119;-57
2023/01/18 03:36:25;;;;;;;2.07;1.73;;;;;;;2.20;100.00;93859.34;5075372;28;20232;-57
2023/01/18 03:38:56;;;;;;;1.60;1.50;;;;;;;2.19;100.00;93855.13;5075047;28;20213;-56
2023/01/18 03:41:24;;;;;;;1.53;1.43;;;;;;;2.20;100.00;93851.50;5074542;28;20202;-56
2023/01/18 03:43:52;;;;;;;1.67;1.57;;;;;;;2.24;100.00;93852.81;5074982;28;20220;-57
2023/01/18 03:46:19;;;;;;;1.50;1.40;;;;;;;2.17;100.00;93859.66;5078707;28;20210;-57
2023/01/18 03:48:46;;;;;;;1.37;1.27;;;;;;;2.15;100.00;93859.00;5092322;28;20262;-61
2023/01/18 03:51:19;;;;;;;2.03;1.53;;;;;;;2.15;100.00;93861.63;5098483;28;20171;-57
2023/01/18 03:53:53;;;;;;;1.43;1.33;;;;;;;2.12;100.00;93854.13;5078258;28;20225;-57
2023/01/18 03:56:24;;;;;;;1.53;1.20;;;;;;;2.10;100.00;93861.28;5073530;28;20209;-55
2023/01/18 03:58:52;;;;;;;1.73;1.37;;;;;;;2.05;100.00;93866.97;5073658;28;20220;-57
2023/01/18 04:01:19;;;;;;;1.50;1.40;;;;;;;2.07;100.00;93870.22;5072057;28;20234;-57
2023/01/18 04:03:45;;;;;;;1.70;1.60;;;;;;;2.02;100.00;93876.91;5072260;28;20205;-56
2023/01/18 04:06:12;;;;;;;1.73;1.20;;;;;;;2.01;100.00;93878.69;5072099;28;20207;-57
2023/01/18 04:08:40;;;;;;;1.50;1.40;;;;;;;1.94;100.00;93886.34;5072057;28;20213;-57
2023/01/18 04:11:06;;;;;;;1.77;1.47;;;;;;;1.97;100.00;93891.22;5072367;28;20255;-55
2023/01/18 04:13:33;;;;;;;1.77;1.57;;;;;;;1.96;100.00;93900.00;5071641;28;20745;-56
2023/01/18 04:16:03;;;;;;;1.67;1.57;;;;;;;1.97;100.00;93896.44;5071226;28;20220;-58
2023/01/18 04:18:29;;;;;;;1.50;1.40;;;;;;;1.98;100.00;93911.06;5072547;28;20573;-56
2023/01/18 04:20:56;;;;;;;2.40;1.40;;;;;;;1.99;100.00;93914.50;5071882;28;20535;-55
2023/01/18 04:23:23;;;;;;;1.77;1.67;;;;;;;2.04;100.00;93914.84;5071906;28;20206;-57
2023/01/18 04:25:51;;;;;;;1.63;1.50;;;;;;;2.05;100.00;93903.47;5070363;28;20206;-56
2023/01/18 04:28:26;;;;;;;1.63;1.53;;;;;;;2.07;100.00;93906.72;5071147;28;20202;-56
2023/01/18 04:30:53;;;;;;;2.33;1.60;;;;;;;2.16;100.00;93918.00;5071920;28;20646;-57
2023/01/18 04:33:20;;;;;;;1.70;1.60;;;;;;;2.13;100.00;93915.69;5071240;28;20234;-56
2023/01/18 04:35:46;;;;;;;1.53;1.30;;;;;;;2.11;100.00;93917.66;5070872;28;20276;-56
2023/01/18 04:38:13;;;;;;;1.40;1.20;;;;;;;2.11;100.00;93918.47;5071615;28;20205;-57
2023/01/18 04:40:40;;;;;;;2.20;1.33;;;;;;;2.17;100.00;93925.63;5070652;28;20552;-58
2023/01/18 04:43:07;;;;;;;1.17;1.13;;;;;;;2.20;100.00;93919.28;5070860;28;20202;-58
2023/01/18 04:45:34;;;;;;;1.10;1.10;;;;;;;2.26;100.00;93929.09;5070981;28;20322;-57
2023/01/18 04:48:00;;;;;;;1.97;1.20;;;;;;;2.24;100.00;93923.22;5071442;28;20217;-56
2023/01/18 04:50:27;;;;;;;3.17;2.40;;;;;;;2.20;100.00;93927.09;5071612;28;20198;-56
2023/01/18 04:52:53;;;;;;;2.43;1.63;;;;;;;2.19;100.00;93935.91;5071594;28;20260;-57
2023/01/18 04:55:20;;;;;;;1.50;1.40;;;;;;;2.19;100.00;93935.91;5071077;28;20203;-57
2023/01/18 04:57:46;;;;;;;1.60;1.50;;;;;;;2.27;100.00;93938.53;5072244;28;20198;-58
2023/01/18 05:00:15;;;;;;;1.40;1.27;;;;;;;2.30;100.00;93940.84;5073721;28;20203;-57
2023/01/18 05:02:41;;;;;;;1.30;1.30;;;;;;;2.27;100.00;93941.13;5074619;28;20241;-56
2023/01/18 05:05:08;;;;;;;1.30;1.20;;;;;;;2.25;100.00;93945.69;5074506;28;20206;-58
2023/01/18 05:07:35;;;;;;;1.40;1.30;;;;;;;2.33;100.00;93950.94;5075211;28;20199;-57
2023/01/18 05:10:02;;;;;;;1.37;1.27;;;;;;;2.32;100.00;93951.91;5073674;28;20198;-58
2023/01/18 05:12:29;;;;;;;1.20;1.10;;;;;;;2.29;100.00;93954.84;5072847;28;20645;-57
2023/01/18 05:14:55;;;;;;;1.37;1.27;;;;;;;2.34;100.00;93955.16;5072652;28;20228;-57
2023/01/18 05:17:26;;;;;;;1.67;1.57;;;;;;;2.30;100.00;93959.88;5073162;28;20202;-58
2023/01/18 05:19:53;;;;;;;1.53;1.30;;;;;;;2.38;100.00;93961.69;5073801;28;20198;-58
2023/01/18 05:22:20;;;;;;;1.60;1.23;;;;;;;2.44;100.00;93971.53;5072267;28;20542;-57
2023/01/18 05:24:46;;;;;;;1.73;1.53;;;;;;;2.37;100.00;93963.50;5071394;28;20208;-57
2023/01/18 05:27:13;;;;;;;1.23;1.20;;;;;;;2.37;100.00;93973.91;5071482;28;20202;-56
2023/01/18 05:29:39;;;;;;;1.43;1.33;;;;;;;2.34;100.00;93970.81;5072787;28;20664;-61
2023/01/18 05:32:06;;;;;;;1.47;1.37;;;;;;;2.35;100.00;93980.28;5071125;28;20207;-56
2023/01/18 05:34:35;;;;;;;1.57;1.47;;;;;;;2.38;100.00;93988.59;5070789;28;20230;-58
2023/01/18 05:37:03;;;;;;;3.60;1.33;;;;;;;2.35;100.00;93983.69;5073060;28;20213;-57
2023/01/18 05:39:29;;;;;;;1.33;1.23;;;;;;;2.37;100.00;93991.38;5074806;28;20293;-56
2023/01/18 05:41:56;;;;;;;1.03;1.03;;;;;;;2.36;100.00;93985.34;5074654;28;20217;-57
2023/01/18 05:44:22;;;;;;;2.07;1.23;;;;;;;2.37;100.00;93986.16;5074513;28;20217;-57
2023/01/18 05:46:49;;;;;;;1.23;1.13;;;;;;;2.31;100.00;93992.81;5074791;28;20538;-57
2023/01/18 05:49:15;;;;;;;1.07;1.03;;;;;;;2.40;100.00;94004.09;5075702;28;20211;-57
2023/01/18 05:51:43;;;;;;;1.40;1.30;;;;;;;2.37;100.00;94012.25;5076733;28;20214;-57
2023/01/18 05:54:10;;;;;;;1.07;1.07;;;;;;;2.46;100.00;94011.28;5074003;28;20241;-56
2023/01/18 05:56:37;;;;;;;1.37;1.37;;;;;;;2.40;100.00;94010.13;5074369;28;20301;-56
2023/01/18 05:59:04;;;;;;;1.50;1.33;;;;;;;2.42;100.00;94021.22;5077890;28;20203;-56
2023/01/18 06:01:31;;;;;;;1.17;1.13;;;;;;;2.47;100.00;94024.16;5089462;28;20262;-57
2023/01/18 06:03:57;;;;;;;2.17;1.47;;;;;;;2.53;100.00;94035.75;5074830;28;20203;-57
2023/01/18 06:06:24;;;;;;;1.73;1.40;;;;;;;2.56;100.00;94038.03;5074568;28;20205;-57
2023/01/18 06:08:51;;;;;;;1.47;1.37;;;;;;;2.61;100.00;94046.22;5074096;28;20210;-56
2023/01/18 06:11:18;;;;;;;1.63;1.53;;;;;;;2.60;100.00;94044.56;5087217;28;20202;-58
2023/01/18 06:13:44;;;;;;;1.43;1.33;;;;;;;2.62;100.00;94053.06;5098582;28;20209;-58
2023/01/18 06:16:12;;;;;;;1.60;1.50;;;;;;;2.58;100.00;94056.16;5100598;28;20189;-58
2023/01/18 06:18:40;;;;;;;1.50;1.40;;;;;;;2.57;100.00;94057.13;5083785;28;20626;-57
2023/01/18 06:21:09;;;;;;;1.57;1.47;;;;;;;2.50;100.00;94064.75;5077303;28;20202;-58
2023/01/18 06:23:36;;;;;;;2.13;1.90;;;;;;;2.41;100.00;94070.91;5074997;28;20202;-58
2023/01/18 06:26:04;;;;;;;2.23;2.00;;;;;;;2.40;100.00;94079.72;5074317;28;20584;-57
2023/01/18 06:28:30;;;;;;;1.53;1.43;;;;;;;2.36;100.00;94079.22;5074218;28;20221;-58
2023/01/18 06:30:57;;;;;;;1.97;1.70;;;;;;;2.33;100.00;94089.13;5074332;28;20217;-57
2023/01/18 06:33:24;;;;;;;2.10;1.80;;;;;;;2.21;100.00;94090.38;5074194;28;20209;-57
2023/01/18 06:35:51;;;;;;;2.37;1.83;;;;;;;2.18;100.00;94090.69;5074583;28;20206;-56
2023/01/18 06:38:17;;;;;;;1.90;1.80;;;;;;;2.13;100.00;94108.56;5073997;28;20206;-57
2023/01/18 06:40:43;;;;;;;3.13;2.00;;;;;;;2.04;100.00;94106.88;5073855;28;20199;-57
2023/01/18 06:43:12;;;;;;;2.30;2.10;;;;;;;2.00;100.00;94115.03;5074322;28;20220;-56
2023/01/18 06:45:39;;;;;;;2.63;2.40;;;;;;;1.95;100.00;94122.47;5073198;28;20292;-56
2023/01/18 06:48:06;;;;;;;4.40;2.23;;;;;;;1.94;100.00;94113.03;5072946;28;20225;-58
2023/01/18 06:50:32;;;;;;;2.70;2.50;;;;;;;1.92;100.00;94127.16;5073151;28;20215;-56
2023/01/18 06:52:59;;;;;;;2.70;2.50;;;;;;;1.85;100.00;94126.97;5072877;28;20229;-56
2023/01/18 06:55:26;;;;;;;2.93;2.60;;;;;;;1.83;100.00;94135.91;5073356;28;20225;-57
2023/01/18 06:57:53;;;;;;;2.80;2.50;;;;;;;1.78;100.00;94141.56;5079498;28;20396;-58
2023/01/18 07:00:23;;;;;;;4.07;2.77;;;;;;;1.72;100.00;94152.59;5094292;28;20202;-59
2023/01/18 07:02:51;;;;;;;2.53;2.40;;;;;;;1.76;100.00;94153.94;5084441;28;20234;-56
2023/01/18 07:05:18;;;;;;;2.63;2.43;;;;;;;1.74;100.00;94155.84;5078880;28;20312;-56
2023/01/18 07:07:45;;;;;;;2.00;1.90;;;;;;;1.76;100.00;94161.75;5084219;28;20212;-57
2023/01/18 07:10:12;;;;;;;2.57;2.37;;;;;;;1.78;100.00;94165.00;5073508;28;20210;-57
2023/01/18 07:12:38;;;;;;;3.07;2.87;;;;;;;1.82;100.00;94171.56;5073254;28;20202;-59
2023/01/18 07:15:06;;;;;;;2.77;2.57;;;;;;;1.87;100.00;94166.72;5073145;28;20233;-58
2023/01/18 07:17:34;;;;;;;2.90;2.70;;;;;;;1.95;100.00;94174.56;5073079;28;20218;-59
2023/01/18 07:20:00;;;;;;;2.90;2.70;;;;;;;2.00;100.00;94182.78;5073315;28;20209;-58
2023/01/18 07:22:27;;;;;;;2.77;2.63;;;;;;;1.95;100.00;94185.00;5072531;28;20210;-58
2023/01/18 07:24:53;;;;;;;2.47;2.37;;;;;;;1.95;100.00;94179.78;5071981;28;20202;-57
2023/01/18 07:27:20;;;;;;;2.87;2.67;;;;;;;2.05;100.00;94194.53;5073137;28;20213;-58
2023/01/18 07:29:46;;;;;;;3.63;3.23;;;;;;;2.09;100.00;94194.06;5072135;28;20217;-58
2023/01/18 07:32:13;;;;;;;3.00;2.80;;;;;;;2.13;100.00;94199.78;5072098;28;20198;-57
2023/01/18 07:34:40;;;;;;;2.70;2.60;;;;;;;2.11;100.00;94201.75;5072596;28;20235;-58
2023/01/18 07:37:07;;;;;;;3.37;3.07;;;;;;;2.11;100.00;94209.56;5072575;28;20236;-58
2023/01/18 07:39:33;;;;;;;3.50;3.30;;;;;;;2.14;100.00;94214.47;5072167;28;20233;-58
2023/01/18 07:42:00;;;;;;;4.10;3.90;;;;;;;2.18;100.00;94218.41;5072835;28;20203;-57
2023/01/18 07:44:26;;;;;;;3.90;3.63;;;;;;;2.14;100.00;94225.72;5071752;28;20203;-58
2023/01/18 07:46:53;;;;;;;4.60;4.27;;;;;;;2.09;100.00;94227.16;5072832;28;20202;-58
2023/01/18 07:49:19;;;;;;;3.80;3.60;;;;;;;2.05;100.00;94228.41;5072486;28;20538;-58
2023/01/18 07:51:48;;;;;;;4.03;3.73;;;;;;;2.06;100.00;94233.47;5072520;28;20210;-59
2023/01/18 07:54:16;;;;;;;4.17;3.80;;;;;;;2.04;100.00;94237.19;5071365;28;20230;-58
2023/01/18 07:56:42;;;;;;;4.50;4.10;;;;;;;2.10;100.00;94241.78;5072409;28;20213;-59
2023/01/18 07:59:08;;;;;;;4.03;3.73;;;;;;;2.07;100.00;94244.72;5071993;28;20218;-58
2023/01/18 08:01:35;;;;;;;5.17;4.77;;;;;;;2.09;100.00;94250.59;5071431;28;20253;-59
2023/01/18 08:04:02;;;;;;;4.40;4.10;;;;;;;2.12;100.00;94248.53;5072063;28;21425;-58
2023/01/18 08:06:28;;;;;;;4.90;4.50;;;;;;;2.10;100.00;94254.84;5072622;28;20243;-57
2023/01/18 08:08:56;;;;;;;5.03;4.63;;;;;;;2.10;100.00;94260.03;5071901;28;20210;-58
2023/01/18 08:11:23;;;;;;;5.00;4.50;;;;;;;2.11;100.00;94264.28;5071414;28;20217;-58
2023/01/18 08:13:51;;;;;;;4.40;4.10;;;;;;;2.11;100.00;94272.13;5071603;28;20213;-58
2023/01/18 08:16:18;;;;;;;4.40;4.10;;;;;;;2.11;100.00;94282.53;5071625;28;20202;-59
2023/01/18 08:18:45;;;;;;;5.83;3.80;;;;;;;2.10;100.00;94279.09;5071517;28;20206;-58
2023/01/18 08:21:13;;;;;;;4.37;3.90;;;;;;;2.10;100.00;94280.91;5071441;28;20693;-57
2023/01/18 08:23:41;;;;;;;4.00;3.70;;;;;;;2.07;100.00;94296.84;5072092;28;20213;-57
2023/01/18 08:26:11;;;;;;;3.53;3.23;;;;;;;2.10;100.00;94291.31;5071931;28;20203;-58
2023/01/18 08:28:38;;;;;;;3.77;3.47;;;;;;;2.13;100.00;94298.84;5072153;28;20209;-58
2023/01/18 08:31:10;;;;;;;3.00;2.70;;;;;;;2.12;100.00;94302.44;5072296;28;20202;-58
2023/01/18 08:33:39;;;;;;;2.90;2.70;;;;;;;2.16;100.00;94298.56;5072633;28;20528;-58
2023/01/18 08:36:10;;;;;;;3.30;3.00;;;;;;;2.17;100.00;94303.63;5070907;28;20230;-58
2023/01/18 08:38:36;;;;;;;3.83;3.50;;;;;;;2.11;100.00;94304.22;5092028;28;20296;-59
2023/01/18 08:41:03;;;;;;;3.30;3.10;;;;;;;2.19;100.00;94319.94;5096294;28;20182;-57
2023/01/18 08:43:31;;;;;;;3.23;3.03;;;;;;;2.22;100.00;94318.81;5092790;28;20206;-57
2023/01/18 08:45:58;;;;;;;3.17;2.87;;;;;;;2.28;100.00;94329.47;5081004;28;20599;-57
2023/01/18 08:48:24;;;;;;;3.10;2.90;;;;;;;2.25;100.00;94326.34;5080950;28;20210;-59
2023/01/18 08:50:51;;;;;;;2.80;2.60;;;;;;;2.22;100.00;94331.84;5074021;28;20221;-57
2023/01/18 08:53:17;;;;;;;4.27;3.87;;;;;;;2.27;100.00;94334.81;5071660;28;20209;-58
2023/01/18 08:55:44;;;;;;;8.10;5.80;;;;;;;2.38;100.00;94335.41;5071218;28;20241;-58
2023/01/18 08:58:12;;;;;;;5.40;4.00;;;;;;;2.46;100.00;94345.09;5070639;28;20480;-57
2023/01/18 09:00:40;;;;;;;3.77;3.30;;;;;;;2.52;100.00;94341.88;5071324;28;20198;-58
2023/01/18 09:03:07;;;;;;;3.60;3.37;;;;;;;2.61;100.00;94348.81;5072898;28;20198;-57
2023/01/18 09:05:35;;;;;;;8.47;3.57;;;;;;;2.68;100.00;94351.63;5075333;28;20198;-58
2023/01/18 09:08:01;;;;;;;16.23;4.27;;;;;;;2.67;100.00;94363.84;5077460;28;20233;-58
2023/01/18 09:10:28;;;;;;;5.27;3.30;;;;;;;2.72;100.00;94356.41;5076516;28;20199;-58
2023/01/18 09:12:55;;;;;;;8.03;3.43;;;;;;;2.74;100.00;94364.91;5076598;28;20202;-58
2023/01/18 09:15:21;;;;;;;3.13;2.63;;;;;;;2.75;100.00;94381.38;5076313;28;20581;-57
2023/01/18 09:17:49;;;;;;;3.77;2.80;;;;;;;2.73;100.00;94378.91;5076268;28;20202;-57
2023/01/18 09:20:16;;;;;;;2.60;2.50;;;;;;;2.72;100.00;94385.13;5070615;28;20202;-58
2023/01/18 09:22:44;;;;;;;4.03;2.83;;;;;;;2.66;100.00;94398.75;5071262;28;20218;-58
2023/01/18 09:25:11;;;;;;;3.30;3.00;;;;;;;2.62;100.00;94396.59;5069380;28;20206;-57
2023/01/18 09:27:37;;;;;;;3.10;2.90;;;;;;;2.55;100.00;94406.00;5071258;28;20291;-58
2023/01/18 09:30:05;;;;;;;3.63;2.60;;;;;;;2.63;100.00;94403.44;5070024;28;20221;-58
2023/01/18 09:32:31;;;;;;;3.37;2.80;;;;;;;2.64;100.00;94424.16;5070998;28;20210;-57
2023/01/18 09:35:00;;;;;;;3.20;2.90;;;;;;;2.65;100.00;94425.81;5070808;28;20222;-57
2023/01/18 09:37:26;;;;;;;3.97;3.67;;;;;;;2.70;100.00;94426.19;5070895;28;20213;-58
2023/01/18 09:39:53;;;;;;;3.70;3.40;;;;;;;2.71;100.00;94430.44;5070744;28;20575;-58
2023/01/18 09:42:21;;;;;;;3.30;3.03;;;;;;;2.77;100.00;94432.44;5071099;28;20206;-57
2023/01/18 09:44:50;;;;;;;3.20;2.80;;;;;;;2.76;100.00;94438.66;5069930;28;20237;-58
2023/01/18 09:47:19;;;;;;;2.90;2.70;;;;;;;2.79;100.00;94440.13;5070669;28;20548;-57
2023/01/18 09:49:51;;;;;;;2.97;2.67;;;;;;;2.82;100.00;94447.66;5070366;28;20210;-58
2023/01/18 09:52:25;;;;;;;2.67;2.57;;;;;;;2.76;100.00;94446.47;5070599;28;20260;-57
2023/01/18 09:54:56;;;;;;;3.33;3.03;;;;;;;2.80;100.00;94450.41;5070160;28;20245;-58
2023/01/18 09:57:36;;;;;;;2.80;2.60;;;;;;;2.84;100.00;94463.97;5069662;28;20194;-60
2023/01/18 10:00:04;;;;;;;2.40;2.13;;;;;;;2.79;100.00;94464.44;5070729;28;20207;-58
2023/01/18 10:02:37;;;;;;;2.17;2.07;;;;;;;2.83;100.00;94468.41;5070287;28;20230;-57
2023/01/18 10:05:06;;;;;;;2.60;2.40;;;;;;;2.80;100.00;94473.09;5070852;28;20550;-58
2023/01/18 10:07:37;;;;;;;2.30;2.20;;;;;;;2.70;100.00;94482.75;5070548;28;20206;-58
2023/01/18 10:10:05;;;;;;;2.33;2.23;;;;;;;2.75;100.00;94483.97;5070011;28;20211;-57
2023/01/18 10:12:36;;;;;;;2.23;2.13;;;;;;;2.85;100.00;94486.50;5070126;28;20546;-57
2023/01/18 10:15:07;;;;;;;2.17;2.07;;;;;;;2.80;100.00;94492.16;5070666;28;20207;-57
2023/01/18 10:17:37;;;;;;;2.43;2.27;;;;;;;2.79;100.00;94502.75;5070188;28;20195;-57
2023/01/18 10:20:13;;;;;;;2.37;2.10;;;;;;;2.76;100.00;94500.44;5070601;28;20207;-58
2023/01/18 10:22:47;;;;;;;2.23;2.13;;;;;;;2.80;100.00;94505.19;5070652;28;20194;-57
2023/01/18 10:25:16;;;;;;;2.27;2.17;;;;;;;2.87;100.00;94506.25;5072729;28;20655;-58
2023/01/18 10:28:02;;;;;;;2.00;1.80;;;;;;;2.85;100.00;94510.81;5073463;28;20961;-58
2023/01/18 10:30:42;;;;;;;2.13;1.90;;;;;;;2.96;100.00;94515.00;5074001;28;20546;-59
2023/01/18 10:33:15;;;;;;;2.63;2.00;;;;;;;3.04;100.00;94516.84;5074160;28;20202;-58
2023/01/18 10:35:44;;;;;;;1.80;1.70;;;;;;;3.01;100.00;94521.38;5074287;28;20532;-58
2023/01/18 10:38:15;;;;;;;2.03;1.93;;;;;;;3.15;100.00;94519.25;5073629;28;20678;-57
2023/01/18 10:40:42;;;;;;;1.80;1.73;;;;;;;3.18;100.00;94524.16;5073773;28;20206;-58
2023/01/18 10:43:11;;;;;;;1.80;1.70;;;;;;;3.21;100.00;94527.28;5073604;28;20527;-58
2023/01/18 10:45:37;;;;;;;1.90;1.80;;;;;;;3.31;100.00;94537.66;5075030;28;20244;-58
2023/01/18 10:48:23;;;;;;;1.70;1.60;;;;;;;3.27;100.00;94533.69;5074331;28;20195;-58
2023/01/18 10:50:52;;;;;;;1.80;1.70;;;;;;;3.31;100.00;94535.88;5074499;28;20239;-57
2023/01/18 10:53:24;;;;;;;1.93;1.83;;;;;;;3.40;100.00;94542.00;5075071;28;20194;-58
2023/01/18 10:55:56;;;;;;;1.80;1.70;;;;;;;3.47;100.00;94540.41;5075193;28;20233;-58
2023/01/18 10:58:29;;;;;;;1.70;1.60;;;;;;;3.42;100.00;94553.09;5075822;28;20214;-57
2023/01/18 11:00:56;;;;;;;1.73;1.63;;;;;;;3.52;100.00;94553.81;5073495;28;20337;-57
2023/01/18 11:03:25;;;;;;;1.40;1.40;;;;;;;3.58;100.00;94553.22;5075343;28;20210;-58
2023/01/18 11:05:52;;;;;;;1.60;1.50;;;;;;;3.56;100.00;94552.56;5092196;28;20198;-59
2023/01/18 11:08:23;;;;;;;1.70;1.60;;;;;;;3.61;100.00;94552.09;5098335;28;20192;-58
2023/01/18 11:11:01;;;;;;;1.83;1.60;;;;;;;3.60;100.00;94555.69;5097939;28;20199;-57
2023/01/18 11:13:32;;;;;;;1.90;1.80;;;;;;;3.57;100.00;94562.03;5086460;28;20324;-57
2023/01/18 11:16:12;;;;;;;2.13;2.03;;;;;;;3.68;100.00;94553.97;5073870;28;20221;-57
2023/01/18 11:18:55;;;;;;;1.80;1.70;;;;;;;3.62;100.00;94565.00;5073303;28;20202;-59
2023/01/18 11:21:22;;;;;;;4.23;3.67;;;;;;;3.65;100.00;94569.94;5073423;28;20611;-57
2023/01/18 11:23:50;;;;;;;2.97;2.73;;;;;;;3.61;100.00;94571.22;5073013;28;20211;-57
2023/01/18 11:26:19;;;;;;;1.90;1.80;;;;;;;3.73;99.76;94569.16;5072995;28;20198;-57
2023/01/18 11:28:50;;;;;;;1.40;1.40;;;;;;;3.62;95.38;94572.84;5073439;28;20266;-58
2023/01/18 11:31:20;;;;;;;1.63;1.53;;;;;;;3.53;99.87;94571.16;5072953;28;20214;-59
2023/01/18 11:33:51;;;;;;;1.90;1.80;;;;;;;3.65;100.00;94569.94;5073269;28;20202;-57
2023/01/18 11:36:19;;;;;;;2.27;2.07;;;;;;;3.68;97.88;94585.31;5072907;28;20228;-57
2023/01/18 11:38:46;;;;;;;2.27;2.07;;;;;;;3.69;98.94;94581.72;5072811;28;20202;-57
2023/01/18 11:41:16;;;;;;;1.70;1.60;;;;;;;3.76;97.25;94585.38;5072115;28;20203;-56
2023/01/18 11:43:59;;;;;;;1.50;1.40;;;;;;;3.71;98.88;94590.25;5072768;28;20201;-58
2023/01/18 11:46:34;;;;;;;1.60;1.50;;;;;;;3.75;99.12;94591.59;5072530;28;20202;-58
2023/01/18 11:49:06;;;;;;;1.70;1.60;;;;;;;3.84;97.80;94590.66;5073658;28;20267;-57
2023/01/18 11:51:37;;;;;;;1.50;1.40;;;;;;;3.83;94.41;94588.19;5072221;28;20218;-56
2023/01/18 11:54:11;;;;;;;1.47;1.37;;;;;;;3.84;93.96;94593.28;5072401;28;20214;-58
2023/01/18 11:56:42;;;;;;;1.73;1.63;;;;;;;3.77;95.95;94597.47;5071878;28;20214;-56
2023/01/18 11:59:13;;;;;;;2.10;1.97;;;;;;;3.80;95.41;94599.78;5071941;28;20214;-57
2023/01/18 12:01:57;;;;;;;1.90;1.80;;;;;;;3.83;91.40;94598.66;5071495;28;20928;-58
2023/01/18 12:04:33;;;;;;;1.83;1.73;;;;;;;3.79;89.30;94607.78;5072011;28;20187;-59
2023/01/18 12:07:13;;;;;;;1.90;1.80;;;;;;;3.55;91.38;94605.78;5072449;28;20198;-57
2023/01/18 12:09:47;;;;;;;1.70;1.60;;;;;;;3.42;92.78;94610.56;5071612;28;20202;-57
2023/01/18 12:12:29;;;;;;;2.93;1.70;;;;;;;3.37;98.09;94613.63;5071540;28;20504;-57
2023/01/18 12:15:13;;;;;;;1.73;1.60;;;;;;;3.38;96.26;94617.06;5072289;28;20195;-57